Time;durP1;ratioP1;P1;durP2;ratioP2;P2;SDS_P1;SDS_P2;PMS_P1;PMS_P2;Temp;Humidity;BMP_temperature;BMP_pressure;BME280_temperature;BME280_humidity;BME280_pressure;Samples;Min_cycle;Max_cycle;Signal;HPM_P1;HPM_P2
2022/06/14 00:01:40;;;;;;;;;;;16.10;99.90;;;;;;5075937;28;19917;-79
2022/06/14 00:04:05;;;;;;;;;;;16.00;99.90;;;;;;5075959;28;19909;-79
2022/06/14 00:06:32;;;;;;;;;;;15.90;99.90;;;;;;5076121;28;20377;-79
2022/06/14 00:08:58;;;;;;;;;;;15.80;99.90;;;;;;5076043;28;19908;-79
2022/06/14 00:11:31;;;;;;;;;;;15.80;99.90;;;;;;5075783;28;20431;-79
2022/06/14 00:13:57;;;;;;;;;;;15.70;99.90;;;;;;5074716;28;19958;-79
2022/06/14 00:16:23;;;;;;;;;;;15.90;99.90;;;;;;5074336;28;20281;-79
2022/06/14 00:18:49;;;;;;;;;;;15.70;99.90;;;;;;5075685;28;19940;-79
2022/06/14 00:21:15;;;;;;;;;;;15.70;99.90;;;;;;5075715;28;19916;-79
2022/06/14 00:23:40;;;;;;;;;;;15.60;99.90;;;;;;5075573;28;19908;-79
2022/06/14 00:26:06;;;;;;;;;;;15.60;99.90;;;;;;5074268;28;20056;-79
2022/06/14 00:28:33;;;;;;;;;;;15.60;99.90;;;;;;5075707;28;19908;-79
2022/06/14 00:31:01;;;;;;;;;;;15.50;99.90;;;;;;5075444;28;19909;-79
2022/06/14 00:33:27;;;;;;;;;;;15.40;99.90;;;;;;5075412;28;19916;-79
2022/06/14 00:35:57;;;;;;;;;;;15.40;99.90;;;;;;5074087;28;19916;-79
2022/06/14 00:38:22;;;;;;;;;;;15.50;99.90;;;;;;5075260;28;20455;-79
2022/06/14 00:40:49;;;;;;;;;;;15.60;99.90;;;;;;5075268;28;19962;-79
2022/06/14 00:43:16;;;;;;;;;;;15.50;99.90;;;;;;5075094;28;19938;-79
2022/06/14 00:45:41;;;;;;;;;;;15.40;99.90;;;;;;5075329;28;19908;-79
2022/06/14 00:48:18;;;;;;;;;;;15.40;99.90;;;;;;5075094;28;20277;-79
2022/06/14 00:50:50;;;;;;;;;;;15.30;99.90;;;;;;5075663;28;19908;-79
2022/06/14 00:53:21;;;;;;;;;;;15.30;99.90;;;;;;5074948;28;20046;-79
2022/06/14 00:56:04;;;;;;;;;;;15.40;99.90;;;;;;5075041;28;19909;-79
2022/06/14 00:58:36;;;;;;;;;;;15.60;99.90;;;;;;5075285;28;19920;-79
2022/06/14 01:01:13;;;;;;;;;;;15.50;99.90;;;;;;5074972;28;19958;-79
2022/06/14 01:03:42;;;;;;;;;;;15.50;99.90;;;;;;5074655;28;19912;-79
2022/06/14 01:06:13;;;;;;;;;;;15.50;99.90;;;;;;5074701;28;19908;-79
2022/06/14 01:08:41;;;;;;;;;;;15.40;99.90;;;;;;5073416;28;20353;-79
2022/06/14 01:11:09;;;;;;;;;;;15.30;99.90;;;;;;5074605;28;20369;-79
2022/06/14 01:13:36;;;;;;;;;;;15.40;99.90;;;;;;5074610;28;20346;-79
2022/06/14 01:16:02;;;;;;;;;;;15.30;99.90;;;;;;5074677;28;19915;-79
2022/06/14 01:18:28;;;;;;;;;;;15.20;99.90;;;;;;5074533;28;19999;-79
2022/06/14 01:20:54;;;;;;;;;;;15.00;99.90;;;;;;5074486;28;19950;-79
2022/06/14 01:23:20;;;;;;;;;;;15.00;99.90;;;;;;5074329;28;19955;-79
2022/06/14 01:25:48;;;;;;;;;;;15.00;99.90;;;;;;5074035;28;19974;-79
2022/06/14 01:28:14;;;;;;;;;;;15.00;99.90;;;;;;5074479;28;20394;-79
2022/06/14 01:30:44;;;;;;;;;;;14.90;99.90;;;;;;5074252;28;19912;-79
2022/06/14 01:33:13;;;;;;;;;;;14.90;99.90;;;;;;5074187;28;19913;-79
2022/06/14 01:41:22;;;;;;;;;;;15.10;99.90;;;;;;5564181;22;19937;-77
2022/06/14 01:52:03;;;;;;;;;;;14.70;99.90;;;;;;4975097;28;20408;-78
2022/06/14 01:54:29;;;;;;;;;;;14.70;99.90;;;;;;4957901;28;20281;-79
2022/06/14 01:56:54;;;;;;;;;;;14.60;99.90;;;;;;4975227;28;19910;-78
2022/06/14 01:59:20;;;;;;;;;;;14.70;99.90;;;;;;4975456;28;20445;-79
2022/06/14 02:01:57;;;;;;;;;;;14.60;99.90;;;;;;4975097;28;20321;-79
2022/06/14 02:04:39;;;;;;;;;;;14.60;99.90;;;;;;4975130;28;19910;-79
2022/06/14 02:07:24;;;;;;;;;;;14.70;99.90;;;;;;4975296;28;20358;-79
2022/06/14 02:10:05;;;;;;;;;;;14.70;99.90;;;;;;4975057;28;20281;-79
2022/06/14 02:12:37;;;;;;;;;;;14.70;99.90;;;;;;4973728;28;19910;-78
2022/06/14 02:15:13;;;;;;;;;;;14.80;99.90;;;;;;4975019;28;19910;-80
2022/06/14 02:17:47;;;;;;;;;;;14.80;99.90;;;;;;4975397;28;20401;-78
2022/06/14 02:20:15;;;;;;;;;;;14.50;99.90;;;;;;4975053;28;19910;-79
2022/06/14 02:22:51;;;;;;;;;;;14.40;99.90;;;;;;4974940;28;20374;-77
2022/06/14 02:25:21;;;;;;;;;;;14.30;99.90;;;;;;4975198;28;19957;-79
2022/06/14 02:27:52;;;;;;;;;;;14.40;99.90;;;;;;4975065;28;19926;-79
2022/06/14 02:30:21;;;;;;;;;;;14.30;99.90;;;;;;4974772;28;19910;-77
2022/06/14 02:32:52;;;;;;;;;;;14.50;99.90;;;;;;4974878;28;19917;-77
2022/06/14 02:35:23;;;;;;;;;;;14.50;99.90;;;;;;4975003;28;19936;-79
2022/06/14 02:38:01;;;;;;;;;;;14.30;99.90;;;;;;4975993;28;20362;-79
2022/06/14 02:40:33;;;;;;;;;;;14.20;99.90;;;;;;4978785;28;19910;-79
2022/06/14 02:43:12;;;;;;;;;;;14.00;99.90;;;;;;4978589;28;19918;-78
2022/06/14 02:45:46;;;;;;;;;;;14.00;99.90;;;;;;4978919;28;19910;-79
2022/06/14 02:48:18;;;;;;;;;;;14.00;99.90;;;;;;4978285;28;19922;-78
2022/06/14 02:50:56;;;;;;;;;;;14.00;99.90;;;;;;4978642;28;20025;-79
2022/06/14 02:53:25;;;;;;;;;;;14.00;99.90;;;;;;4978478;28;19921;-79
2022/06/14 02:55:59;;;;;;;;;;;14.00;99.90;;;;;;4961389;28;19941;-78
2022/06/14 02:58:25;;;;;;;;;;;14.10;99.90;;;;;;4978550;28;19910;-78
2022/06/14 03:00:53;;;;;;;;;;;14.10;99.90;;;;;;4978382;28;19917;-78
2022/06/14 03:03:24;;;;;;;;;;;14.10;99.90;;;;;;4978273;28;19922;-77
2022/06/14 03:06:02;;;;;;;;;;;14.20;99.90;;;;;;4978277;28;20358;-77
2022/06/14 03:08:35;;;;;;;;;;;14.20;99.90;;;;;;4978446;28;19911;-77
2022/06/14 03:11:19;;;;;;;;;;;14.10;99.90;;;;;;4978246;28;19961;-79
2022/06/14 03:13:47;;;;;;;;;;;13.80;99.90;;;;;;4978295;28;19910;-78
2022/06/14 03:16:19;;;;;;;;;;;13.70;99.90;;;;;;4978145;28;19910;-78
2022/06/14 03:18:57;;;;;;;;;;;13.60;99.90;;;;;;4978125;28;19911;-79
2022/06/14 03:21:25;;;;;;;;;;;13.70;99.90;;;;;;4978182;28;19918;-79
2022/06/14 03:23:54;;;;;;;;;;;13.60;99.90;;;;;;4977929;28;19958;-79
2022/06/14 03:26:23;;;;;;;;;;;13.70;99.90;;;;;;4977938;28;19910;-78
2022/06/14 03:29:01;;;;;;;;;;;13.80;99.90;;;;;;4977868;28;19953;-79
2022/06/14 03:31:27;;;;;;;;;;;13.70;99.90;;;;;;4977997;28;19937;-78
2022/06/14 03:34:09;;;;;;;;;;;13.70;99.90;;;;;;4977709;28;19910;-80
2022/06/14 03:36:34;;;;;;;;;;;13.60;99.90;;;;;;4977865;28;19910;-78
2022/06/14 03:39:11;;;;;;;;;;;13.70;99.90;;;;;;4976457;28;20380;-79
2022/06/14 03:41:38;;;;;;;;;;;13.60;99.90;;;;;;4977900;28;19917;-79
2022/06/14 03:44:04;;;;;;;;;;;13.60;99.90;;;;;;4977597;28;20293;-80
2022/06/14 03:46:32;;;;;;;;;;;13.60;99.90;;;;;;4977494;28;19917;-80
2022/06/14 03:49:02;;;;;;;;;;;13.60;99.90;;;;;;4976948;28;20408;-80
2022/06/14 03:51:40;;;;;;;;;;;13.50;99.90;;;;;;4977336;28;19910;-78
2022/06/14 03:54:09;;;;;;;;;;;13.50;99.90;;;;;;4977706;28;19911;-78
2022/06/14 03:56:41;;;;;;;;;;;13.50;99.90;;;;;;4977397;28;20396;-77
2022/06/14 03:59:06;;;;;;;;;;;13.40;99.90;;;;;;4977577;28;19917;-79
2022/06/14 04:01:46;;;;;;;;;;;13.50;99.90;;;;;;4977266;28;20281;-78
2022/06/14 04:04:18;;;;;;;;;;;13.50;99.90;;;;;;4977361;28;19914;-79
2022/06/14 04:06:50;;;;;;;;;;;13.50;99.90;;;;;;4977164;28;19961;-79
2022/06/14 04:09:34;;;;;;;;;;;13.50;99.90;;;;;;4977394;28;19910;-79
2022/06/14 04:12:02;;;;;;;;;;;13.60;99.90;;;;;;4977022;28;19953;-79
2022/06/14 04:14:34;;;;;;;;;;;13.60;99.90;;;;;;4977090;28;19918;-79
2022/06/14 04:17:10;;;;;;;;;;;13.50;99.90;;;;;;4977110;28;19916;-79
2022/06/14 04:19:41;;;;;;;;;;;13.50;99.90;;;;;;4977156;28;19910;-80
2022/06/14 04:22:24;;;;;;;;;;;13.50;99.90;;;;;;4976894;28;20369;-78
2022/06/14 04:24:52;;;;;;;;;;;13.50;99.90;;;;;;4976934;28;19910;-78
2022/06/14 04:27:21;;;;;;;;;;;13.50;99.90;;;;;;4977023;28;20398;-78
2022/06/14 04:29:55;;;;;;;;;;;13.50;99.90;;;;;;4977072;28;19914;-76
2022/06/14 04:32:25;;;;;;;;;;;13.60;99.90;;;;;;4976899;28;19929;-79
2022/06/14 04:34:54;;;;;;;;;;;13.70;99.90;;;;;;4977028;28;19917;-78
2022/06/14 04:37:28;;;;;;;;;;;13.60;99.90;;;;;;4976589;28;19918;-79
2022/06/14 04:39:58;;;;;;;;;;;13.50;99.90;;;;;;4959183;28;20313;-78
2022/06/14 04:42:28;;;;;;;;;;;13.50;99.90;;;;;;4976488;28;19954;-78
2022/06/14 04:44:56;;;;;;;;;;;13.10;99.90;;;;;;4976697;28;20289;-79
2022/06/14 04:47:31;;;;;;;;;;;13.10;99.90;;;;;;4976103;28;19911;-79
2022/06/14 04:50:02;;;;;;;;;;;13.30;99.90;;;;;;4976676;28;20045;-78
2022/06/14 04:52:39;;;;;;;;;;;13.30;99.90;;;;;;4976616;28;20378;-79
2022/06/14 04:55:11;;;;;;;;;;;13.20;99.90;;;;;;4976381;28;19965;-78
2022/06/14 04:57:58;;;;;;;;;;;13.30;99.90;;;;;;4976356;28;19914;-77
2022/06/14 05:00:29;;;;;;;;;;;13.70;99.90;;;;;;4975825;28;20009;-80
2022/06/14 05:02:55;;;;;;;;;;;13.70;99.90;;;;;;4976213;28;19911;-81
2022/06/14 05:08:28;;;;;;;;;;;13.80;99.90;;;;;;4975789;28;20021;-78
2022/06/14 05:10:57;;;;;;;;;;;13.80;99.90;;;;;;4976226;28;19921;-78
2022/06/14 05:13:27;;;;;;;;;;;13.60;99.90;;;;;;4975884;28;19969;-78
2022/06/14 05:16:02;;;;;;;;;;;13.80;99.90;;;;;;4975809;28;19916;-78
2022/06/14 05:18:35;;;;;;;;;;;14.10;99.90;;;;;;4976065;28;19953;-79
2022/06/14 05:21:27;;;;;;;;;;;14.30;99.90;;;;;;4975691;28;19961;-79
2022/06/14 05:23:54;;;;;;;;;;;14.60;99.90;;;;;;4973612;28;19945;-79
2022/06/14 05:26:31;;;;;;;;;;;14.70;99.90;;;;;;4975740;28;19967;-78
2022/06/14 05:29:12;;;;;;;;;;;14.70;99.90;;;;;;4975796;28;19910;-78
2022/06/14 05:31:46;;;;;;;;;;;14.80;99.90;;;;;;4975453;28;20366;-78
2022/06/14 05:34:19;;;;;;;;;;;14.70;99.90;;;;;;4976090;28;19911;-78
2022/06/14 05:36:52;;;;;;;;;;;14.90;99.90;;;;;;4957918;28;20289;-78
2022/06/14 05:39:37;;;;;;;;;;;14.90;99.90;;;;;;4975462;28;19910;-79
2022/06/14 05:42:22;;;;;;;;;;;14.90;99.90;;;;;;4968164;28;19917;-77
2022/06/14 05:44:49;;;;;;;;;;;15.00;99.90;;;;;;4975512;28;20404;-80
2022/06/14 05:47:21;;;;;;;;;;;14.90;99.90;;;;;;4975729;28;20417;-78
2022/06/14 05:49:52;;;;;;;;;;;15.10;99.90;;;;;;4957710;28;19914;-76
2022/06/14 05:52:26;;;;;;;;;;;15.30;99.90;;;;;;4975305;28;20424;-78
2022/06/14 05:55:00;;;;;;;;;;;15.30;99.90;;;;;;4975880;28;20000;-77
2022/06/14 05:57:38;;;;;;;;;;;15.50;99.90;;;;;;4975345;28;19910;-79
2022/06/14 06:00:10;;;;;;;;;;;15.50;99.90;;;;;;4975417;28;19910;-77
2022/06/14 06:03:01;;;;;;;;;;;15.60;99.90;;;;;;4975246;28;19956;-77
2022/06/14 06:05:29;;;;;;;;;;;15.70;99.90;;;;;;4957426;28;20369;-78
2022/06/14 06:07:58;;;;;;;;;;;15.80;99.90;;;;;;4975137;28;19910;-79
2022/06/14 06:10:31;;;;;;;;;;;15.90;99.90;;;;;;4975129;28;19916;-78
2022/06/14 06:13:12;;;;;;;;;;;16.10;99.90;;;;;;4974281;28;19984;-78
2022/06/14 06:15:46;;;;;;;;;;;16.20;99.90;;;;;;4974996;28;19961;-77
2022/06/14 06:18:24;;;;;;;;;;;16.20;99.90;;;;;;4975024;28;19964;-78
2022/06/14 06:20:55;;;;;;;;;;;16.40;99.90;;;;;;4975215;28;19911;-79
2022/06/14 06:23:25;;;;;;;;;;;16.60;99.90;;;;;;4975300;28;19911;-77
2022/06/14 06:25:55;;;;;;;;;;;16.60;99.90;;;;;;4974878;28;19918;-78
2022/06/14 06:28:24;;;;;;;;;;;16.90;99.90;;;;;;4974887;28;19918;-78
2022/06/14 06:31:11;;;;;;;;;;;16.90;99.90;;;;;;4975004;28;19910;-79
2022/06/14 06:33:40;;;;;;;;;;;17.10;99.90;;;;;;4967882;28;19914;-78
2022/06/14 06:36:06;;;;;;;;;;;17.30;99.90;;;;;;4974701;28;19917;-79
2022/06/14 06:38:55;;;;;;;;;;;17.40;99.90;;;;;;4974819;28;19936;-80
2022/06/14 06:44:12;;;;;;;;;;;17.60;99.90;;;;;;4974841;28;19933;-78
2022/06/14 06:46:43;;;;;;;;;;;17.70;99.90;;;;;;4973226;28;19911;-79
2022/06/14 06:49:12;;;;;;;;;;;18.00;99.90;;;;;;4974519;28;20289;-78
2022/06/14 06:51:44;;;;;;;;;;;17.80;99.90;;;;;;4974587;28;19917;-78
2022/06/14 06:54:28;;;;;;;;;;;17.90;99.50;;;;;;4974615;28;19911;-78
2022/06/14 06:56:55;;;;;;;;;;;17.70;99.80;;;;;;4974517;28;19917;-79
2022/06/14 06:59:27;;;;;;;;;;;17.80;98.80;;;;;;4974376;28;20417;-78
2022/06/14 07:01:54;;;;;;;;;;;17.80;99.60;;;;;;4974542;28;19910;-78
2022/06/14 07:04:20;;;;;;;;;;;18.10;99.50;;;;;;4974703;28;19911;-78
2022/06/14 07:06:50;;;;;;;;;;;18.40;99.60;;;;;;4974808;28;20386;-79
2022/06/14 07:09:16;;;;;;;;;;;18.50;97.80;;;;;;4974672;28;20005;-80
2022/06/14 07:11:59;;;;;;;;;;;18.50;97.90;;;;;;4974857;28;20425;-82
2022/06/14 07:14:28;;;;;;;;;;;18.50;98.60;;;;;;4974535;28;20357;-81
2022/06/14 07:16:58;;;;;;;;;;;18.70;97.20;;;;;;4974137;28;19915;-79
2022/06/14 07:19:28;;;;;;;;;;;18.50;96.60;;;;;;4974685;28;19910;-80
2022/06/14 07:22:08;;;;;;;;;;;18.70;96.90;;;;;;4974016;28;19910;-81
2022/06/14 07:24:47;;;;;;;;;;;18.90;95.80;;;;;;4976671;28;19915;-80
2022/06/14 07:27:14;;;;;;;;;;;19.10;94.90;;;;;;4977945;28;20005;-81
2022/06/14 07:29:43;;;;;;;;;;;19.00;94.70;;;;;;4977162;28;19961;-80
2022/06/14 07:32:19;;;;;;;;;;;19.00;94.50;;;;;;4977108;28;19922;-80
2022/06/14 07:34:44;;;;;;;;;;;19.10;93.80;;;;;;4977228;28;19917;-79
2022/06/14 07:37:19;;;;;;;;;;;19.20;93.60;;;;;;4977210;28;20008;-79
2022/06/14 07:39:51;;;;;;;;;;;19.30;93.30;;;;;;4959652;28;19910;-80
2022/06/14 07:42:19;;;;;;;;;;;19.40;94.10;;;;;;4977133;28;20355;-81
2022/06/14 07:44:53;;;;;;;;;;;19.70;92.70;;;;;;4977608;28;20289;-80
2022/06/14 07:47:18;;;;;;;;;;;21.30;90.10;;;;;;4977309;28;19961;-81
2022/06/14 07:49:47;;;;;;;;;;;24.40;80.10;;;;;;4977708;28;19914;-81
2022/06/14 07:52:15;;;;;;;;;;;26.80;70.90;;;;;;4960002;28;19915;-82
2022/06/14 07:54:43;;;;;;;;;;;28.20;66.00;;;;;;4977411;28;19914;-82
2022/06/14 07:57:14;;;;;;;;;;;29.20;60.70;;;;;;4977336;28;19914;-80
2022/06/14 07:59:47;;;;;;;;;;;29.80;58.50;;;;;;4977266;28;19941;-83
2022/06/14 08:02:16;;;;;;;;;;;30.60;56.50;;;;;;4977497;28;19957;-81
2022/06/14 08:04:48;;;;;;;;;;;30.20;54.80;;;;;;4977346;28;19914;-80
2022/06/14 08:07:18;;;;;;;;;;;30.30;54.70;;;;;;4977543;28;19997;-82
2022/06/14 08:09:50;;;;;;;;;;;30.30;53.20;;;;;;4978094;28;19972;-81
2022/06/14 08:12:20;;;;;;;;;;;30.40;53.50;;;;;;4977065;28;19964;-81
2022/06/14 08:14:46;;;;;;;;;;;30.30;54.00;;;;;;4977174;28;20263;-81
2022/06/14 08:17:14;;;;;;;;;;;30.90;55.00;;;;;;4977127;28;19943;-82
2022/06/14 08:19:52;;;;;;;;;;;31.40;54.00;;;;;;4976908;28;20045;-81
2022/06/14 08:22:21;;;;;;;;;;;31.40;51.90;;;;;;4977324;28;20286;-81
2022/06/14 08:24:49;;;;;;;;;;;31.60;53.20;;;;;;4976955;28;19916;-80
2022/06/14 08:27:17;;;;;;;;;;;31.60;53.10;;;;;;4976832;28;19910;-81
2022/06/14 08:29:46;;;;;;;;;;;31.90;52.40;;;;;;4976831;28;19914;-82
2022/06/14 08:32:14;;;;;;;;;;;31.70;51.50;;;;;;4976741;28;19910;-80
2022/06/14 08:34:50;;;;;;;;;;;30.60;51.90;;;;;;4976212;28;20367;-82
2022/06/14 08:37:25;;;;;;;;;;;30.30;52.80;;;;;;4976451;28;19910;-80
2022/06/14 08:39:54;;;;;;;;;;;29.80;54.20;;;;;;4976688;28;19910;-81
2022/06/14 08:42:28;;;;;;;;;;;28.90;53.50;;;;;;4976471;28;20001;-81
2022/06/14 08:44:57;;;;;;;;;;;28.40;54.70;;;;;;4976562;28;20347;-80
2022/06/14 08:47:28;;;;;;;;;;;28.60;54.80;;;;;;4976209;28;19918;-81
2022/06/14 08:50:03;;;;;;;;;;;29.10;53.70;;;;;;4976656;28;19929;-82
2022/06/14 08:52:40;;;;;;;;;;;29.10;53.70;;;;;;4976473;28;20008;-81
2022/06/14 08:55:12;;;;;;;;;;;29.00;54.20;;;;;;4976365;28;19910;-81
2022/06/14 08:57:41;;;;;;;;;;;29.70;53.30;;;;;;4976886;28;19910;-80
2022/06/14 09:00:06;;;;;;;;;;;29.10;53.10;;;;;;4976227;28;19948;-82
2022/06/14 09:02:32;;;;;;;;;;;29.10;54.90;;;;;;4976656;28;20339;-82
2022/06/14 09:04:58;;;;;;;;;;;29.30;53.90;;;;;;4976177;28;20018;-80
2022/06/14 09:07:42;;;;;;;;;;;28.80;53.90;;;;;;4976064;28;19953;-80
2022/06/14 09:10:12;;;;;;;;;;;28.60;53.90;;;;;;4975980;28;20354;-83
2022/06/14 09:12:41;;;;;;;;;;;29.00;54.60;;;;;;4976019;28;19918;-82
2022/06/14 09:15:16;;;;;;;;;;;29.40;53.90;;;;;;4975903;28;19932;-82
2022/06/14 09:17:47;;;;;;;;;;;29.50;53.50;;;;;;4976171;28;19910;-81
2022/06/14 09:20:13;;;;;;;;;;;29.40;53.50;;;;;;4976011;28;20005;-81
2022/06/14 09:23:00;;;;;;;;;;;29.30;53.90;;;;;;4975788;28;20523;-81
2022/06/14 09:25:38;;;;;;;;;;;29.40;53.40;;;;;;4975847;28;19933;-81
2022/06/14 09:28:22;;;;;;;;;;;30.40;54.30;;;;;;4975972;28;19965;-81
2022/06/14 09:30:54;;;;;;;;;;;31.50;52.80;;;;;;4975919;28;19918;-84
2022/06/14 09:33:52;;;;;;;;;;;30.90;51.00;;;;;;4975660;28;19914;-81
2022/06/14 09:36:23;;;;;;;;;;;30.60;51.40;;;;;;4953220;28;19910;-81
2022/06/14 09:38:49;;;;;;;;;;;30.20;51.80;;;;;;4975548;28;19990;-79
2022/06/14 09:41:24;;;;;;;;;;;30.50;52.50;;;;;;4975705;28;19911;-81
2022/06/14 09:44:16;;;;;;;;;;;30.20;52.50;;;;;;4975456;28;19914;-80
2022/06/14 09:46:50;;;;;;;;;;;30.10;53.00;;;;;;4959652;28;19910;-81
2022/06/14 09:49:19;;;;;;;;;;;30.00;52.50;;;;;;4957625;28;20306;-82
2022/06/14 09:51:50;;;;;;;;;;;30.20;51.20;;;;;;4975305;28;19910;-81
2022/06/14 09:54:17;;;;;;;;;;;30.50;50.70;;;;;;4975433;28;19910;-81
2022/06/14 09:56:57;;;;;;;;;;;30.80;51.20;;;;;;4975256;28;19917;-82
2022/06/14 09:59:29;;;;;;;;;;;31.50;50.80;;;;;;4975143;28;19941;-80
2022/06/14 10:02:00;;;;;;;;;;;31.40;49.70;;;;;;4975274;28;19914;-81
2022/06/14 10:04:44;;;;;;;;;;;31.30;48.90;;;;;;4975155;28;19922;-79
2022/06/14 10:07:20;;;;;;;;;;;31.70;49.30;;;;;;4975120;28;19910;-82
2022/06/14 10:09:45;;;;;;;;;;;32.00;49.00;;;;;;4975269;28;19949;-83
2022/06/14 10:12:14;;;;;;;;;;;32.30;49.20;;;;;;4975092;28;19910;-79
2022/06/14 10:14:58;;;;;;;;;;;32.20;47.60;;;;;;4974926;28;19918;-82
2022/06/14 10:17:26;;;;;;;;;;;32.30;47.70;;;;;;4974928;28;19944;-82
2022/06/14 10:20:03;;;;;;;;;;;32.30;46.90;;;;;;4974911;28;19917;-79
2022/06/14 10:22:47;;;;;;;;;;;32.70;47.30;;;;;;4975451;28;19946;-82
2022/06/14 10:25:18;;;;;;;;;;;32.80;46.80;;;;;;4974842;28;20342;-80
2022/06/14 10:28:12;;;;;;;;;;;33.20;47.10;;;;;;4974825;28;19914;-82
2022/06/14 10:30:37;;;;;;;;;;;33.90;45.30;;;;;;4974955;28;19914;-81
2022/06/14 10:33:21;;;;;;;;;;;33.60;45.30;;;;;;4975000;28;19911;-80
2022/06/14 10:35:51;;;;;;;;;;;33.70;45.60;;;;;;4975005;28;19916;-80
2022/06/14 10:38:17;;;;;;;;;;;33.70;45.90;;;;;;4975314;28;20346;-82
2022/06/14 10:40:58;;;;;;;;;;;33.60;44.10;;;;;;4974775;28;19910;-81
2022/06/14 10:43:38;;;;;;;;;;;33.00;44.10;;;;;;4973437;28;20255;-79
2022/06/14 10:46:07;;;;;;;;;;;33.30;44.70;;;;;;4976260;28;19911;-79
2022/06/14 10:48:33;;;;;;;;;;;33.70;45.10;;;;;;4975827;28;20382;-80
2022/06/14 10:51:02;;;;;;;;;;;33.90;44.60;;;;;;4974688;28;20005;-81
2022/06/14 10:53:46;;;;;;;;;;;33.90;44.00;;;;;;4974701;28;19910;-81
2022/06/14 10:56:30;;;;;;;;;;;34.10;43.90;;;;;;4974748;28;19914;-79
2022/06/14 10:58:58;;;;;;;;;;;33.70;44.20;;;;;;4975989;28;20350;-81
2022/06/14 11:01:26;;;;;;;;;;;34.00;43.80;;;;;;4960848;28;20536;-81
2022/06/14 11:03:59;;;;;;;;;;;33.70;43.60;;;;;;4962083;28;19914;-79
2022/06/14 11:06:54;;;;;;;;;;;34.20;43.90;;;;;;4969002;28;19916;-81
2022/06/14 11:09:38;;;;;;;;;;;35.30;43.00;;;;;;4965134;28;19911;-80
2022/06/14 11:12:10;;;;;;;;;;;34.80;42.10;;;;;;4968852;28;20401;-79
2022/06/14 11:14:47;;;;;;;;;;;34.50;42.20;;;;;;4968342;28;19915;-79
2022/06/14 11:17:20;;;;;;;;;;;35.40;41.60;;;;;;4967605;28;19962;-80
2022/06/14 11:19:46;;;;;;;;;;;35.70;42.30;;;;;;4966805;28;20259;-80
2022/06/14 11:22:22;;;;;;;;;;;35.10;41.10;;;;;;4968252;28;19921;-81
2022/06/14 11:24:59;;;;;;;;;;;34.80;41.40;;;;;;4968709;28;19933;-79
2022/06/14 11:27:25;;;;;;;;;;;35.60;40.90;;;;;;4969161;28;19910;-80
2022/06/14 11:30:02;;;;;;;;;;;34.90;40.80;;;;;;4960527;28;19910;-80
2022/06/14 11:32:51;;;;;;;;;;;35.00;41.20;;;;;;4977922;28;19954;-81
2022/06/14 11:35:19;;;;;;;;;;;35.30;40.90;;;;;;4969686;28;19950;-80
2022/06/14 11:38:05;;;;;;;;;;;35.40;41.40;;;;;;4977858;28;19945;-80
2022/06/14 11:40:34;;;;;;;;;;;36.20;40.20;;;;;;4959805;28;20282;-81
2022/06/14 11:43:19;;;;;;;;;;;36.30;41.00;;;;;;4977678;28;19914;-81
2022/06/14 11:45:48;;;;;;;;;;;36.40;40.50;;;;;;4977755;28;19910;-79
2022/06/14 11:48:25;;;;;;;;;;;36.40;41.20;;;;;;4977340;28;20310;-79
2022/06/14 11:51:05;;;;;;;;;;;36.40;40.70;;;;;;4977956;28;19910;-80
2022/06/14 11:53:30;;;;;;;;;;;37.00;40.70;;;;;;4977471;28;19917;-80
2022/06/14 11:55:56;;;;;;;;;;;36.80;40.30;;;;;;4977543;28;19910;-80
2022/06/14 11:58:29;;;;;;;;;;;37.00;39.70;;;;;;4977870;28;19957;-79
2022/06/14 12:01:00;;;;;;;;;;;36.80;40.30;;;;;;4977488;28;19914;-79
2022/06/14 12:03:26;;;;;;;;;;;37.30;40.10;;;;;;4977286;28;19937;-81
2022/06/14 12:06:11;;;;;;;;;;;37.10;39.80;;;;;;4977332;28;20394;-80
2022/06/14 12:08:55;;;;;;;;;;;36.50;39.90;;;;;;4977641;28;19913;-80
2022/06/14 12:11:31;;;;;;;;;;;36.40;40.10;;;;;;4977045;28;19949;-79
2022/06/14 12:14:00;;;;;;;;;;;36.60;39.10;;;;;;4977108;28;19978;-80
2022/06/14 12:16:37;;;;;;;;;;;37.30;39.10;;;;;;4977240;28;19910;-80
2022/06/14 12:19:08;;;;;;;;;;;37.00;38.70;;;;;;4977156;28;20378;-80
2022/06/14 12:21:43;;;;;;;;;;;36.80;39.20;;;;;;4976840;28;19910;-80
2022/06/14 12:24:11;;;;;;;;;;;36.70;38.70;;;;;;4959538;28;20382;-79
2022/06/14 12:26:41;;;;;;;;;;;36.80;39.30;;;;;;4976920;28;20293;-80
2022/06/14 12:29:23;;;;;;;;;;;36.70;38.90;;;;;;4976946;28;20386;-80
2022/06/14 12:31:56;;;;;;;;;;;37.30;39.10;;;;;;4976871;28;19914;-79
2022/06/14 12:34:24;;;;;;;;;;;38.80;38.70;;;;;;4976628;28;19961;-80
2022/06/14 12:36:53;;;;;;;;;;;38.80;38.00;;;;;;4976907;28;19910;-81
2022/06/14 12:39:31;;;;;;;;;;;38.20;38.30;;;;;;4976554;28;19910;-81
2022/06/14 12:42:16;;;;;;;;;;;37.60;37.90;;;;;;4976635;28;19914;-79
2022/06/14 12:44:53;;;;;;;;;;;37.60;38.70;;;;;;4976092;28;19997;-80
2022/06/14 12:47:27;;;;;;;;;;;38.50;38.30;;;;;;4976667;28;19910;-80
2022/06/14 12:49:57;;;;;;;;;;;38.50;38.40;;;;;;4976607;28;20366;-79
2022/06/14 12:52:30;;;;;;;;;;;38.00;37.70;;;;;;4976525;28;19921;-81
2022/06/14 12:54:58;;;;;;;;;;;38.00;38.20;;;;;;4976613;28;20018;-80
2022/06/14 12:57:42;;;;;;;;;;;39.50;37.10;;;;;;4976820;28;19965;-80
2022/06/14 13:00:16;;;;;;;;;;;39.00;36.70;;;;;;4976351;28;19961;-79
2022/06/14 13:02:46;;;;;;;;;;;38.30;37.30;;;;;;4976196;28;20013;-81
2022/06/14 13:05:18;;;;;;;;;;;38.80;37.70;;;;;;4958853;28;20306;-81
2022/06/14 13:08:02;;;;;;;;;;;38.40;37.80;;;;;;4976139;28;19953;-80
2022/06/14 13:10:31;;;;;;;;;;;38.70;37.40;;;;;;4976097;28;19910;-79
2022/06/14 13:12:57;;;;;;;;;;;38.60;37.40;;;;;;4976179;28;19964;-79
2022/06/14 13:15:25;;;;;;;;;;;37.60;37.00;;;;;;4976352;28;19914;-81
2022/06/14 13:18:00;;;;;;;;;;;36.90;38.10;;;;;;4975887;28;19910;-81
2022/06/14 13:20:48;;;;;;;;;;;36.80;38.60;;;;;;4975888;28;19910;-81
2022/06/14 13:23:33;;;;;;;;;;;37.90;37.60;;;;;;4947938;28;19921;-81
2022/06/14 13:26:16;;;;;;;;;;;39.00;37.00;;;;;;4975775;28;19910;-81
2022/06/14 13:28:55;;;;;;;;;;;37.90;38.40;;;;;;4975931;28;19950;-81
2022/06/14 13:31:39;;;;;;;;;;;37.70;37.30;;;;;;4958027;28;20290;-80
2022/06/14 13:34:05;;;;;;;;;;;38.30;37.10;;;;;;4975668;28;20362;-81
2022/06/14 13:36:40;;;;;;;;;;;39.10;36.80;;;;;;4975752;28;19910;-80
2022/06/14 13:39:06;;;;;;;;;;;39.10;36.40;;;;;;4975650;28;19917;-81
2022/06/14 13:41:34;;;;;;;;;;;40.00;35.80;;;;;;4975999;28;19910;-79
2022/06/14 13:44:09;;;;;;;;;;;39.60;36.40;;;;;;4975472;28;19914;-80
2022/06/14 13:46:41;;;;;;;;;;;39.20;36.50;;;;;;4975272;28;20009;-81
2022/06/14 13:49:20;;;;;;;;;;;38.40;36.40;;;;;;4975021;28;20321;-81
2022/06/14 13:51:49;;;;;;;;;;;39.40;36.20;;;;;;4975713;28;19977;-80
2022/06/14 13:54:15;;;;;;;;;;;39.60;35.70;;;;;;4975462;28;19910;-81
2022/06/14 13:56:58;;;;;;;;;;;40.20;35.40;;;;;;4975295;28;19916;-80
2022/06/14 13:59:25;;;;;;;;;;;38.70;36.00;;;;;;4975245;28;20005;-80
2022/06/14 14:01:57;;;;;;;;;;;38.60;35.70;;;;;;4975354;28;19910;-81
2022/06/14 14:04:25;;;;;;;;;;;38.60;35.70;;;;;;4975389;28;20366;-81
2022/06/14 14:07:04;;;;;;;;;;;38.50;36.10;;;;;;4975136;28;20325;-80
2022/06/14 14:09:48;;;;;;;;;;;38.40;35.80;;;;;;4975528;28;19910;-80
2022/06/14 14:12:20;;;;;;;;;;;37.80;36.00;;;;;;4975097;28;20363;-79
2022/06/14 14:15:00;;;;;;;;;;;37.20;37.10;;;;;;4975191;28;20293;-80
2022/06/14 14:17:31;;;;;;;;;;;36.80;36.40;;;;;;4975051;28;19910;-80
2022/06/14 14:19:56;;;;;;;;;;;36.20;37.30;;;;;;4975142;28;19910;-81
2022/06/14 14:22:29;;;;;;;;;;;36.30;37.70;;;;;;4974949;28;19965;-81
2022/06/14 14:24:54;;;;;;;;;;;38.20;37.90;;;;;;4974978;28;19952;-80
2022/06/14 14:27:41;;;;;;;;;;;40.20;36.10;;;;;;4974899;28;19953;-80
2022/06/14 14:30:16;;;;;;;;;;;40.00;36.10;;;;;;4975151;28;20013;-81
2022/06/14 14:32:48;;;;;;;;;;;38.60;36.30;;;;;;4974861;28;19961;-82
2022/06/14 14:35:25;;;;;;;;;;;39.80;36.20;;;;;;4978667;28;19910;-80
2022/06/14 14:38:01;;;;;;;;;;;39.40;36.20;;;;;;4979010;28;19910;-81
2022/06/14 14:40:33;;;;;;;;;;;38.30;36.20;;;;;;4978994;28;19978;-79
2022/06/14 14:43:01;;;;;;;;;;;39.30;36.90;;;;;;4978746;28;20288;-82
2022/06/14 14:45:39;;;;;;;;;;;40.40;36.50;;;;;;4978742;28;19910;-79
2022/06/14 14:48:07;;;;;;;;;;;39.40;36.20;;;;;;4978463;28;20378;-81
2022/06/14 14:50:52;;;;;;;;;;;38.00;35.90;;;;;;4978654;28;19916;-80
2022/06/14 14:53:31;;;;;;;;;;;39.50;36.40;;;;;;4978685;28;19918;-80
2022/06/14 14:56:07;;;;;;;;;;;40.10;35.40;;;;;;4978655;28;19975;-82
2022/06/14 14:58:52;;;;;;;;;;;42.20;35.40;;;;;;4961103;28;20373;-81
2022/06/14 15:07:39;;;;;;;;;;;42.10;34.30;;;;;;4918807;29;19979;-80
2022/06/14 15:10:15;;;;;;;;;;;42.00;34.30;;;;;;4972979;28;20009;-81
2022/06/14 15:12:49;;;;;;;;;;;41.40;34.00;;;;;;4978419;28;19917;-80
2022/06/14 15:15:23;;;;;;;;;;;40.40;33.90;;;;;;4978186;28;19917;-81